createdAt,value
2023-03-01T00:01:47.201Z,70.80
2023-03-01T00:04:14.952Z,71.39
2023-03-01T00:06:46.972Z,71.16
2023-03-01T00:09:16.960Z,70.88
2023-03-01T00:11:44.826Z,70.63
2023-03-01T00:14:12.563Z,70.95
2023-03-01T00:16:42.530Z,70.43
2023-03-01T00:19:13.419Z,70.41
2023-03-01T00:21:41.601Z,71.17
2023-03-01T00:24:10.215Z,70.98
2023-03-01T00:26:39.689Z,70.41
2023-03-01T00:29:07.705Z,70.37
2023-03-01T00:31:35.920Z,69.99
2023-03-01T00:34:05.821Z,70.68
2023-03-01T00:36:35.465Z,70.49
2023-03-01T00:39:05.213Z,71.34
2023-03-01T00:41:34.790Z,70.71
2023-03-01T00:44:03.838Z,70.12
2023-03-01T00:46:32.220Z,70.89
2023-03-01T00:49:02.891Z,70.39
2023-03-01T00:51:31.659Z,70.24
2023-03-01T00:54:01.748Z,70.51
2023-03-01T00:56:29.883Z,71.03
2023-03-01T00:58:57.799Z,71.81
2023-03-01T01:01:31.671Z,70.58
2023-03-01T01:04:01.965Z,69.70
2023-03-01T01:06:32.373Z,70.52
2023-03-01T01:09:00.740Z,71.11
2023-03-01T01:11:29.586Z,70.02
2023-03-01T01:13:58.218Z,69.90
2023-03-01T01:16:29.654Z,70.77
2023-03-01T01:18:58.221Z,70.03
2023-03-01T01:21:26.530Z,69.18
2023-03-01T01:23:54.823Z,69.59
2023-03-01T01:26:24.786Z,70.25
2023-03-01T01:28:53.188Z,69.96
2023-03-01T01:31:21.589Z,70.10
2023-03-01T01:33:50.541Z,69.76
2023-03-01T01:36:18.233Z,69.56
2023-03-01T01:38:45.941Z,70.31
2023-03-01T01:41:14.929Z,71.10
2023-03-01T01:43:44.530Z,71.34
2023-03-01T01:46:22.170Z,70.66
2023-03-01T01:48:56.913Z,70.94
2023-03-01T01:51:29.202Z,71.62
2023-03-01T01:54:02.551Z,71.03
2023-03-01T01:56:32.825Z,70.42
2023-03-01T01:59:03.342Z,70.13
2023-03-01T02:01:31.092Z,70.53
2023-03-01T02:04:00.795Z,70.29
2023-03-01T02:06:32.034Z,69.27
2023-03-01T02:09:04.252Z,69.68
2023-03-01T02:11:33.123Z,69.17
2023-03-01T02:14:00.747Z,69.42
2023-03-01T02:16:30.304Z,69.56
2023-03-01T02:19:00.396Z,68.91
2023-03-01T02:21:40.227Z,69.32
2023-03-01T02:24:20.947Z,69.84
2023-03-01T02:26:53.769Z,69.85
2023-03-01T02:29:23.046Z,69.50
2023-03-01T02:31:53.200Z,69.21
2023-03-01T02:34:26.209Z,69.88
2023-03-01T02:36:58.094Z,70.27
2023-03-01T02:39:30.492Z,69.42
2023-03-01T02:41:59.894Z,69.46
2023-03-01T02:44:28.937Z,69.66
2023-03-01T02:46:58.989Z,70.21
2023-03-01T02:49:29.049Z,70.16
2023-03-01T02:52:24.239Z,70.69
2023-03-01T02:54:58.010Z,71.63
2023-03-01T02:57:28.307Z,72.49
2023-03-01T03:00:01.491Z,72.51
2023-03-01T03:02:38.479Z,72.16
2023-03-01T03:05:10.445Z,72.41
2023-03-01T03:07:43.814Z,71.73
2023-03-01T03:10:14.414Z,71.38
2023-03-01T03:12:42.837Z,71.87
2023-03-01T03:15:13.661Z,71.31
2023-03-01T03:17:45.342Z,71.44
2023-03-01T03:20:19.896Z,71.78
2023-03-01T03:22:48.035Z,71.60
2023-03-01T03:25:18.717Z,71.90
2023-03-01T03:27:48.514Z,72.14
2023-03-01T03:30:21.858Z,72.77
2023-03-01T03:32:53.165Z,73.23
2023-03-01T03:35:22.111Z,72.80
2023-03-01T03:38:09.900Z,72.89
2023-03-01T03:40:39.181Z,72.74
2023-03-01T03:43:10.064Z,72.85
2023-03-01T03:45:39.101Z,73.11
2023-03-01T03:48:08.793Z,72.61
2023-03-01T03:50:36.468Z,73.35
2023-03-01T03:53:07.083Z,72.78
2023-03-01T03:55:34.834Z,73.60
2023-03-01T03:58:07.843Z,74.07
2023-03-01T04:00:37.148Z,73.84
2023-03-01T04:03:06.564Z,73.20
2023-03-01T04:05:35.467Z,72.78
2023-03-01T04:08:07.949Z,73.21
2023-03-01T04:10:39.896Z,72.71
2023-03-01T04:13:11.549Z,73.34
2023-03-01T04:15:40.224Z,72.70
2023-03-01T04:18:09.311Z,72.98
2023-03-01T04:20:42.023Z,73.65
2023-03-01T04:23:16.952Z,73.20
2023-03-01T04:25:50.273Z,72.60
2023-03-01T04:31:14.586Z,72.38
2023-03-01T04:33:45.622Z,73.38
2023-03-01T04:36:15.765Z,73.24
2023-03-01T04:38:48.433Z,73.75
2023-03-01T04:41:18.271Z,74.18
2023-03-01T04:43:46.091Z,73.79
2023-03-01T04:46:16.077Z,74.34
2023-03-01T04:48:47.830Z,74.61
2023-03-01T04:51:19.329Z,73.84
2023-03-01T04:53:46.986Z,74.04
2023-03-01T04:56:15.541Z,73.67
2023-03-01T04:58:43.826Z,74.01
2023-03-01T05:01:16.234Z,74.64
2023-03-01T05:03:46.862Z,73.92
2023-03-01T05:06:14.972Z,73.84
2023-03-01T05:08:43.880Z,74.77
2023-03-01T05:11:12.546Z,75.08
2023-03-01T05:13:41.360Z,75.41
2023-03-01T05:16:12.294Z,75.11
2023-03-01T05:18:43.635Z,75.25
2023-03-01T05:21:16.909Z,75.27
2023-03-01T05:23:44.877Z,75.47
2023-03-01T05:26:27.408Z,75.68
2023-03-01T05:29:00.283Z,75.16
2023-03-01T05:31:28.616Z,74.56
2023-03-01T05:33:56.198Z,75.55
2023-03-01T05:36:25.128Z,75.17
2023-03-01T05:38:52.690Z,74.88
2023-03-01T05:41:20.275Z,74.75
2023-03-01T05:43:47.865Z,74.16
2023-03-01T05:46:16.298Z,74.03
2023-03-01T05:48:44.584Z,74.09
2023-03-01T05:51:13.005Z,73.99
2023-03-01T05:53:42.563Z,74.46
2023-03-01T05:56:10.194Z,74.42
2023-03-01T05:58:39.577Z,75.03
2023-03-01T06:01:07.486Z,74.96
2023-03-01T06:03:35.201Z,75.31
2023-03-01T06:06:03.125Z,74.44
2023-03-01T06:08:30.915Z,75.27
2023-03-01T06:11:00.237Z,75.77
2023-03-01T06:13:27.938Z,74.89
2023-03-01T06:15:55.761Z,75.36
2023-03-01T06:18:23.479Z,75.07
2023-03-01T06:20:55.082Z,74.50
2023-03-01T06:23:23.118Z,74.17
2023-03-01T06:25:51.057Z,73.02
2023-03-01T06:28:20.022Z,72.70
2023-03-01T06:30:47.725Z,71.70
2023-03-01T06:33:16.249Z,70.57
2023-03-01T06:35:44.003Z,69.74
2023-03-01T06:38:11.590Z,67.67
2023-03-01T06:40:39.210Z,67.53
2023-03-01T06:43:08.203Z,67.77
2023-03-01T06:45:37.175Z,68.74
2023-03-01T06:48:07.691Z,68.53
2023-03-01T06:50:36.382Z,68.66
2023-03-01T06:53:04.635Z,69.04
2023-03-01T06:55:48.750Z,68.67
2023-03-01T06:58:16.649Z,68.63
2023-03-01T07:00:45.740Z,68.85
2023-03-01T07:03:20.116Z,68.60
2023-03-01T07:05:51.246Z,68.96
2023-03-01T07:08:23.393Z,70.52
2023-03-01T07:10:57.748Z,69.69
2023-03-01T07:13:25.921Z,70.53
2023-03-01T07:15:55.165Z,70.31
2023-03-01T07:18:23.176Z,71.42
2023-03-01T07:20:51.582Z,70.51
2023-03-01T07:23:19.176Z,70.95
2023-03-01T07:25:52.678Z,71.68
2023-03-01T07:28:20.360Z,71.93
2023-03-01T07:30:48.113Z,70.94
2023-03-01T07:33:17.136Z,69.77
2023-03-01T07:35:44.827Z,68.99
2023-03-01T07:38:12.414Z,68.19
2023-03-01T07:40:40.205Z,67.58
2023-03-01T07:43:07.908Z,67.08
2023-03-01T07:45:35.707Z,66.76
2023-03-01T07:48:03.461Z,65.89
2023-03-01T07:50:32.882Z,64.33
2023-03-01T07:53:00.470Z,62.98
2023-03-01T07:55:28.022Z,61.78
2023-03-01T07:57:55.963Z,61.21
2023-03-01T08:00:26.200Z,59.17
2023-03-01T08:02:53.938Z,58.78
2023-03-01T08:05:23.225Z,59.19
2023-03-01T08:07:52.150Z,57.89
2023-03-01T08:10:20.225Z,56.80
2023-03-01T08:12:47.827Z,56.02
2023-03-01T08:15:15.495Z,56.00
2023-03-01T08:17:43.099Z,56.07
2023-03-01T08:20:13.329Z,55.26
2023-03-01T08:22:41.017Z,54.91
2023-03-01T08:25:12.004Z,55.02
2023-03-01T08:27:39.594Z,54.03
2023-03-01T08:30:08.863Z,55.67
2023-03-01T08:32:40.108Z,55.46
2023-03-01T08:35:08.524Z,55.33
2023-03-01T08:37:36.102Z,54.55
2023-03-01T08:40:04.773Z,54.62
2023-03-01T08:42:34.972Z,55.53
2023-03-01T08:45:02.590Z,55.95
2023-03-01T08:47:31.460Z,55.25
2023-03-01T08:50:02.570Z,55.66
2023-03-01T08:53:06.900Z,56.12
2023-03-01T08:55:36.443Z,56.04
2023-03-01T08:58:12.501Z,54.96
2023-03-01T09:00:40.993Z,54.44
2023-03-01T09:03:08.650Z,54.84
2023-03-01T09:05:37.732Z,54.98
2023-03-01T09:08:05.763Z,55.81
2023-03-01T09:10:35.001Z,58.02
2023-03-01T09:13:02.667Z,57.92
2023-03-01T09:15:32.363Z,58.12
2023-03-01T09:18:03.706Z,58.35
2023-03-01T09:20:33.636Z,58.99
2023-03-01T09:23:01.671Z,58.93
2023-03-01T09:25:29.598Z,58.49
2023-03-01T09:27:57.236Z,59.89
2023-03-01T09:30:35.165Z,58.23
2023-03-01T09:33:15.384Z,59.26
2023-03-01T09:35:47.643Z,59.45
2023-03-01T09:38:17.909Z,59.06
2023-03-01T09:40:47.448Z,58.05
2023-03-01T09:43:22.801Z,58.21
2023-03-01T09:45:54.697Z,57.90
2023-03-01T09:48:28.624Z,57.89
2023-03-01T09:50:58.268Z,58.56
2023-03-01T09:53:36.159Z,57.92
2023-03-01T09:56:13.121Z,56.99
2023-03-01T09:58:53.768Z,57.28
2023-03-01T10:01:35.661Z,56.57
2023-03-01T10:04:22.484Z,57.05
2023-03-01T10:07:03.924Z,56.81
2023-03-01T10:09:35.226Z,56.96
2023-03-01T10:12:06.514Z,56.38
2023-03-01T10:14:47.447Z,55.79
2023-03-01T10:17:26.227Z,55.90
2023-03-01T10:19:55.605Z,55.79
2023-03-01T10:22:26.809Z,55.16
2023-03-01T10:24:56.375Z,56.56
2023-03-01T10:27:25.935Z,56.17
2023-03-01T10:30:16.636Z,55.73
2023-03-01T10:32:49.910Z,56.17
2023-03-01T10:35:22.358Z,56.33
2023-03-01T10:38:05.610Z,55.56
2023-03-01T10:40:33.784Z,55.93
2023-03-01T10:43:04.563Z,55.50
2023-03-01T10:45:36.609Z,54.47
2023-03-01T10:48:17.287Z,54.98
2023-03-01T10:50:55.643Z,54.84
2023-03-01T10:53:30.035Z,54.28
2023-03-01T10:56:03.416Z,54.41
2023-03-01T10:58:31.677Z,53.30
2023-03-01T11:01:02.403Z,52.89
2023-03-01T11:03:32.827Z,53.19
2023-03-01T11:06:06.526Z,53.08
2023-03-01T11:08:51.650Z,52.05
2023-03-01T11:11:26.159Z,52.62
2023-03-01T11:13:58.045Z,50.97
2023-03-01T11:16:35.911Z,51.52
2023-03-01T11:19:27.626Z,50.24
2023-03-01T11:22:06.880Z,49.87
2023-03-01T11:24:42.444Z,49.21
2023-03-01T11:27:19.778Z,49.42
2023-03-01T11:29:54.207Z,48.37
2023-03-01T11:32:25.803Z,47.96
2023-03-01T11:34:58.341Z,47.79
2023-03-01T11:38:05.189Z,48.11
2023-03-01T11:40:46.341Z,47.06
2023-03-01T11:43:24.276Z,46.69
2023-03-01T11:46:27.011Z,46.42
2023-03-01T11:49:09.243Z,45.84
2023-03-01T11:51:48.248Z,45.89
2023-03-01T11:54:29.434Z,45.28
2023-03-01T11:57:07.312Z,46.18
2023-03-01T12:00:08.650Z,45.42
2023-03-01T12:02:59.286Z,45.50
2023-03-01T12:06:09.194Z,45.11
2023-03-01T12:08:50.420Z,44.55
2023-03-01T12:11:34.063Z,44.65
2023-03-01T12:14:27.415Z,43.94
2023-03-01T12:17:25.514Z,44.46
2023-03-01T12:20:17.560Z,44.78
2023-03-01T12:23:19.944Z,44.06
2023-03-01T12:29:04.097Z,43.68
2023-03-01T12:31:54.477Z,44.85
2023-03-01T12:34:48.379Z,44.46
2023-03-01T12:37:43.073Z,44.19
2023-03-01T12:40:31.229Z,44.60
2023-03-01T12:43:13.991Z,44.72
2023-03-01T12:46:08.447Z,44.88
2023-03-01T12:48:46.944Z,44.11
2023-03-01T12:51:17.888Z,43.14
2023-03-01T12:53:49.040Z,44.28
2023-03-01T12:56:22.275Z,42.68
2023-03-01T12:58:59.960Z,43.84
2023-03-01T13:01:41.586Z,43.73
2023-03-01T13:04:35.379Z,43.77
2023-03-01T13:07:26.023Z,42.40
2023-03-01T13:10:03.223Z,42.13
2023-03-01T13:12:52.175Z,41.32
2023-03-01T13:15:35.087Z,41.86
2023-03-01T13:18:26.541Z,41.73
2023-03-01T13:21:00.496Z,42.04
2023-03-01T13:23:31.908Z,41.37
2023-03-01T13:26:13.370Z,41.02
2023-03-01T13:28:54.534Z,41.48
2023-03-01T13:31:56.140Z,43.21
2023-03-01T13:34:46.490Z,43.51
2023-03-01T13:37:30.461Z,43.64
2023-03-01T13:40:28.987Z,44.70
2023-03-01T13:43:05.752Z,44.31
2023-03-01T13:45:41.469Z,44.22
2023-03-01T13:48:17.210Z,44.03
2023-03-01T13:50:50.004Z,44.44
2023-03-01T13:53:20.761Z,44.12
2023-03-01T13:55:50.653Z,44.05
2023-03-01T13:58:24.553Z,44.58
2023-03-01T14:00:59.390Z,44.75
2023-03-01T14:03:27.812Z,44.42
2023-03-01T14:06:15.399Z,44.03
2023-03-01T14:08:45.659Z,44.55
2023-03-01T14:11:49.395Z,43.82
2023-03-01T14:14:40.068Z,44.06
2023-03-01T14:17:30.798Z,44.65
2023-03-01T14:20:00.522Z,44.44
2023-03-01T14:22:30.287Z,44.21
2023-03-01T14:25:02.850Z,44.22
2023-03-01T14:27:37.353Z,43.39
2023-03-01T14:30:16.627Z,43.60
2023-03-01T14:32:45.741Z,43.74
2023-03-01T14:35:24.311Z,43.50
2023-03-01T14:37:53.144Z,43.42
2023-03-01T14:40:27.690Z,43.56
2023-03-01T14:42:57.185Z,43.18
2023-03-01T14:45:29.562Z,44.26
2023-03-01T14:48:03.677Z,43.95
2023-03-01T14:50:37.267Z,44.11
2023-03-01T14:53:09.535Z,43.50
2023-03-01T14:55:42.170Z,43.76
2023-03-01T14:58:19.656Z,44.23
2023-03-01T15:00:54.292Z,44.02
2023-03-01T15:03:27.533Z,44.66
2023-03-01T15:05:56.984Z,43.87
2023-03-01T15:08:27.519Z,43.84
2023-03-01T15:11:00.649Z,44.18
2023-03-01T15:13:32.792Z,43.73
2023-03-01T15:16:13.181Z,43.92
2023-03-01T15:18:54.272Z,43.82
2023-03-01T15:21:32.317Z,43.94
2023-03-01T15:24:06.703Z,43.90
2023-03-01T15:26:43.644Z,43.96
2023-03-01T15:29:20.831Z,43.91
2023-03-01T15:34:41.721Z,43.93
2023-03-01T15:37:42.128Z,43.71
2023-03-01T15:40:44.561Z,43.43
2023-03-01T15:43:48.250Z,43.40
2023-03-01T15:46:29.177Z,44.01
2023-03-01T15:49:00.595Z,43.51
2023-03-01T15:51:41.458Z,43.88
2023-03-01T15:54:18.679Z,43.80
2023-03-01T15:56:52.775Z,43.58
2023-03-01T15:59:23.139Z,44.12
2023-03-01T16:01:51.150Z,44.38
2023-03-01T16:04:23.929Z,44.38
2023-03-01T16:07:00.758Z,44.49
2023-03-01T16:09:34.997Z,44.54
2023-03-01T16:12:04.641Z,45.00
2023-03-01T16:14:34.165Z,45.61
2023-03-01T16:17:02.094Z,45.70
2023-03-01T16:19:29.793Z,45.03
2023-03-01T16:21:58.147Z,45.83
2023-03-01T16:24:26.974Z,45.82
2023-03-01T16:26:54.922Z,46.28
2023-03-01T16:29:24.115Z,45.98
2023-03-01T16:31:51.957Z,46.51
2023-03-01T16:34:22.754Z,46.29
2023-03-01T16:36:50.571Z,46.34
2023-03-01T16:39:18.273Z,46.52
2023-03-01T16:41:45.976Z,46.27
2023-03-01T16:44:13.622Z,46.85
2023-03-01T16:46:44.645Z,46.69
2023-03-01T16:49:12.918Z,46.61
2023-03-01T16:51:40.610Z,46.69
2023-03-01T16:54:16.535Z,47.00
2023-03-01T16:56:45.225Z,47.12
2023-03-01T16:59:45.048Z,47.98
2023-03-01T17:02:17.102Z,47.83
2023-03-01T17:04:45.713Z,48.22
2023-03-01T17:07:17.435Z,48.45
2023-03-01T17:09:51.468Z,48.50
2023-03-01T17:12:20.592Z,48.42
2023-03-01T17:14:50.554Z,48.71
2023-03-01T17:17:21.066Z,48.87
2023-03-01T17:19:51.310Z,49.07
2023-03-01T17:22:18.949Z,49.28
2023-03-01T17:24:47.013Z,49.66
2023-03-01T17:27:15.959Z,49.99
2023-03-01T17:29:43.724Z,49.63
2023-03-01T17:32:11.804Z,49.30
2023-03-01T17:34:40.904Z,49.09
2023-03-01T17:37:08.657Z,49.19
2023-03-01T17:39:37.007Z,49.51
2023-03-01T17:42:07.153Z,49.37
2023-03-01T17:44:35.397Z,49.50
2023-03-01T17:47:06.022Z,49.69
2023-03-01T17:49:34.412Z,50.33
2023-03-01T17:52:04.763Z,50.65
2023-03-01T17:54:33.354Z,50.78
2023-03-01T17:57:01.631Z,50.53
2023-03-01T17:59:35.488Z,50.70
2023-03-01T18:02:06.808Z,50.41
2023-03-01T18:04:34.593Z,50.50
2023-03-01T18:07:02.338Z,50.58
2023-03-01T18:09:31.666Z,50.54
2023-03-01T18:11:59.670Z,50.97
2023-03-01T18:14:31.885Z,51.36
2023-03-01T18:16:59.606Z,51.27
2023-03-01T18:19:28.489Z,51.69
2023-03-01T18:21:56.800Z,51.91
2023-03-01T18:24:24.963Z,52.28
2023-03-01T18:26:54.083Z,52.33
2023-03-01T18:29:22.111Z,52.21
2023-03-01T18:31:49.954Z,52.67
2023-03-01T18:34:17.725Z,52.57
2023-03-01T18:37:00.551Z,52.31
2023-03-01T18:39:35.373Z,52.54
2023-03-01T18:42:24.766Z,52.58
2023-03-01T18:44:55.014Z,52.47
2023-03-01T18:47:24.554Z,52.04
2023-03-01T18:49:52.452Z,52.79
2023-03-01T18:52:20.213Z,53.35
2023-03-01T18:54:48.056Z,53.11
2023-03-01T18:57:17.353Z,53.42
2023-03-01T18:59:45.070Z,53.02
2023-03-01T19:02:15.859Z,53.04
2023-03-01T19:04:44.192Z,53.57
2023-03-01T19:07:13.542Z,53.90
2023-03-01T19:09:41.555Z,53.77
2023-03-01T19:12:09.747Z,53.70
2023-03-01T19:14:39.791Z,53.85
2023-03-01T19:17:07.646Z,53.23
2023-03-01T19:19:36.506Z,53.57
2023-03-01T19:24:50.983Z,53.63
2023-03-01T19:27:18.929Z,53.22
2023-03-01T19:29:48.091Z,53.51
2023-03-01T19:32:19.184Z,54.22
2023-03-01T19:34:47.021Z,53.54
2023-03-01T19:37:15.154Z,53.91
2023-03-01T19:39:50.796Z,54.53
2023-03-01T19:42:18.566Z,53.91
2023-03-01T19:44:46.241Z,54.40
2023-03-01T19:47:15.432Z,54.58
2023-03-01T19:49:46.257Z,54.80
2023-03-01T19:52:14.966Z,54.69
2023-03-01T19:54:42.834Z,54.41
2023-03-01T19:57:10.568Z,55.12
2023-03-01T19:59:38.608Z,55.62
2023-03-01T20:02:06.840Z,55.29
2023-03-01T20:04:36.049Z,55.63
2023-03-01T20:07:04.865Z,55.98
2023-03-01T20:09:32.708Z,56.77
2023-03-01T20:12:00.559Z,57.21
2023-03-01T20:14:28.234Z,57.88
2023-03-01T20:16:55.815Z,57.58
2023-03-01T20:19:24.467Z,58.21
2023-03-01T20:21:53.560Z,57.22
2023-03-01T20:24:21.433Z,57.97
2023-03-01T20:26:49.085Z,58.71
2023-03-01T20:29:16.972Z,58.56
2023-03-01T20:31:45.126Z,59.53
2023-03-01T20:34:12.815Z,59.23
2023-03-01T20:36:41.567Z,59.56
2023-03-01T20:39:13.598Z,59.40
2023-03-01T20:41:41.477Z,60.09
2023-03-01T20:44:12.373Z,60.27
2023-03-01T20:46:40.397Z,59.64
2023-03-01T20:49:08.277Z,60.11
2023-03-01T20:51:35.941Z,59.67
2023-03-01T20:54:04.954Z,59.64
2023-03-01T20:56:34.515Z,60.42
2023-03-01T20:59:05.287Z,60.91
2023-03-01T21:01:34.438Z,60.92
2023-03-01T21:04:02.520Z,60.00
2023-03-01T21:06:30.484Z,60.52
2023-03-01T21:08:58.828Z,60.63
2023-03-01T21:11:26.649Z,60.44
2023-03-01T21:13:57.042Z,60.08
2023-03-01T21:16:29.959Z,59.94
2023-03-01T21:19:00.307Z,59.47
2023-03-01T21:24:11.962Z,60.05
2023-03-01T21:26:39.825Z,59.99
2023-03-01T21:29:11.160Z,59.88
2023-03-01T21:31:49.171Z,59.47
2023-03-01T21:34:16.800Z,60.11
2023-03-01T21:36:44.505Z,59.93
2023-03-01T21:39:14.387Z,59.81
2023-03-01T21:41:42.128Z,59.59
2023-03-01T21:44:13.369Z,60.36
2023-03-01T21:46:42.219Z,60.03
2023-03-01T21:49:13.884Z,59.58
2023-03-01T21:51:42.404Z,59.43
2023-03-01T21:54:14.013Z,58.97
2023-03-01T21:56:42.042Z,59.60
2023-03-01T21:59:17.701Z,59.75
2023-03-01T22:01:48.716Z,59.92
2023-03-01T22:04:17.580Z,60.04
2023-03-01T22:06:47.342Z,59.64
2023-03-01T22:09:18.936Z,59.28
2023-03-01T22:11:50.505Z,59.19
2023-03-01T22:14:28.367Z,59.65
2023-03-01T22:16:57.320Z,59.35
2023-03-01T22:19:27.118Z,58.94
2023-03-01T22:21:54.823Z,59.05
2023-03-01T22:24:25.275Z,58.75
2023-03-01T22:26:54.593Z,59.66
2023-03-01T22:29:26.122Z,59.39
2023-03-01T22:31:54.798Z,59.62
2023-03-01T22:34:23.134Z,59.48
2023-03-01T22:36:51.270Z,60.28
2023-03-01T22:39:21.214Z,60.29
2023-03-01T22:41:50.089Z,60.81
2023-03-01T22:44:25.524Z,60.74
2023-03-01T22:46:53.289Z,61.49
2023-03-01T22:49:21.492Z,61.12
2023-03-01T22:51:49.439Z,61.09
2023-03-01T22:54:19.195Z,60.58
2023-03-01T22:56:47.327Z,61.03
2023-03-01T22:59:18.938Z,60.60
2023-03-01T23:01:48.565Z,61.72
2023-03-01T23:04:16.538Z,61.27
2023-03-01T23:06:51.622Z,61.23
2023-03-01T23:09:24.007Z,61.46
2023-03-01T23:11:53.243Z,61.62
2023-03-01T23:14:22.068Z,62.08
2023-03-01T23:16:52.050Z,61.81
2023-03-01T23:19:19.931Z,61.21
2023-03-01T23:21:50.324Z,61.72
2023-03-01T23:24:22.362Z,61.75
2023-03-01T23:26:53.543Z,61.40
2023-03-01T23:29:21.559Z,61.21
2023-03-01T23:31:49.258Z,61.55
2023-03-01T23:34:19.258Z,62.31
2023-03-01T23:36:46.940Z,62.36
2023-03-01T23:39:15.406Z,62.16
2023-03-01T23:41:43.444Z,61.26
2023-03-01T23:44:15.985Z,60.96
2023-03-01T23:46:44.291Z,62.12
2023-03-01T23:49:13.867Z,61.65
2023-03-01T23:51:44.491Z,62.73
2023-03-01T23:54:14.132Z,63.01
2023-03-01T23:56:44.049Z,61.98
2023-03-01T23:59:14.306Z,63.11
